Current Conditions
Data Offline



Pressure
1010.92 (hPa) - 29.85 (inHG)
Visibility

10.0 (km) - 6.2 (miles)
   Temperature
25  °C
77°F
15  °C
Dewpoint
54  %
 Humidity
   Wind Speed
6.3  m/s
14  mph
23  km/h
12  kts
   Wind Direction
 10°
Due North
   Airport Data
URKA
Location Anapa 118 km (73.34 mi)
Metar :URKA 181100Z 01006MPS 9999 SCT///CB 25/15 Q1011 R04/010070 NOSIG RMK QFE754/1006
Sun 18th August 14:00 pm
   Raw Metar Info
Raw METAR is the most common format in the world for the transmission of observational weather data. It is highly standardized through the International Civil Aviation Organization (ICAO), which allows it to be understood throughout most of the world.
   API Info
Data Provided by
https://www.checkwx.com/weather/URKA
   © Info
CSS/SVG/PHP scripts were developed by weather34.com for use in the weather34 template © 2015-2019

Guide Info provided by Metar-Wikipedia